sensor_id;sensor_type;location;lat;lon;timestamp;pressure;altitude;pressure_sealevel;temperature;humidity
141;BME280;65;48.778;9.160;2023-05-01T00:00:38;98485.06;;;10.25;96.51
141;BME280;65;48.778;9.160;2023-05-01T00:03:25;98483.44;;;10.23;96.63
141;BME280;65;48.778;9.160;2023-05-01T00:06:11;98481.97;;;10.17;96.77
141;BME280;65;48.778;9.160;2023-05-01T00:08:57;98476.88;;;10.14;98.49
141;BME280;65;48.778;9.160;2023-05-01T00:11:42;98477.88;;;10.11;98.42
141;BME280;65;48.778;9.160;2023-05-01T00:14:28;98477.22;;;10.08;98.03
141;BME280;65;48.778;9.160;2023-05-01T00:17:14;98466.81;;;10.05;99.50
141;BME280;65;48.778;9.160;2023-05-01T00:20:00;98466.22;;;10.00;99.22
141;BME280;65;48.778;9.160;2023-05-01T00:22:46;98464.53;;;9.99;99.68
141;BME280;65;48.778;9.160;2023-05-01T00:25:54;98461.13;;;9.97;100.00
141;BME280;65;48.778;9.160;2023-05-01T00:28:40;98458.56;;;9.95;100.00
141;BME280;65;48.778;9.160;2023-05-01T00:31:25;98463.59;;;10.00;100.00
141;BME280;65;48.778;9.160;2023-05-01T00:34:11;98449.88;;;9.93;100.00
141;BME280;65;48.778;9.160;2023-05-01T00:36:57;98452.63;;;9.92;100.00
141;BME280;65;48.778;9.160;2023-05-01T00:39:43;98449.28;;;9.88;100.00
141;BME280;65;48.778;9.160;2023-05-01T00:42:35;98453.91;;;9.85;100.00
141;BME280;65;48.778;9.160;2023-05-01T00:45:21;98448.94;;;9.78;100.00
141;BME280;65;48.778;9.160;2023-05-01T00:48:08;98439.56;;;9.73;100.00
141;BME280;65;48.778;9.160;2023-05-01T00:50:55;98434.38;;;9.71;100.00
141;BME280;65;48.778;9.160;2023-05-01T00:53:42;98436.25;;;9.69;100.00
141;BME280;65;48.778;9.160;2023-05-01T00:56:29;98429.09;;;9.71;100.00
141;BME280;65;48.778;9.160;2023-05-01T00:59:15;98434.47;;;9.70;100.00
141;BME280;65;48.778;9.160;2023-05-01T01:02:01;98430.03;;;9.70;100.00
141;BME280;65;48.778;9.160;2023-05-01T01:04:47;98423.72;;;9.73;100.00
141;BME280;65;48.778;9.160;2023-05-01T01:07:40;98420.16;;;9.74;100.00
141;BME280;65;48.778;9.160;2023-05-01T01:10:40;98420.06;;;9.75;100.00
141;BME280;65;48.778;9.160;2023-05-01T01:13:31;98418.28;;;9.76;100.00
141;BME280;65;48.778;9.160;2023-05-01T01:16:38;98412.25;;;9.74;100.00
141;BME280;65;48.778;9.160;2023-05-01T01:22:21;98402.63;;;9.73;100.00
141;BME280;65;48.778;9.160;2023-05-01T01:31:19;98405.94;;;9.76;100.00
141;BME280;65;48.778;9.160;2023-05-01T01:37:13;98402.03;;;9.83;100.00
141;BME280;65;48.778;9.160;2023-05-01T01:40:05;98401.59;;;9.91;100.00
141;BME280;65;48.778;9.160;2023-05-01T01:42:55;98402.09;;;9.98;100.00
141;BME280;65;48.778;9.160;2023-05-01T01:45:46;98399.88;;;10.06;100.00
141;BME280;65;48.778;9.160;2023-05-01T01:48:36;98403.28;;;10.08;100.00
141;BME280;65;48.778;9.160;2023-05-01T01:51:23;98399.09;;;10.04;100.00
141;BME280;65;48.778;9.160;2023-05-01T01:54:12;98402.00;;;9.99;100.00
141;BME280;65;48.778;9.160;2023-05-01T01:57:01;98398.53;;;9.99;100.00
141;BME280;65;48.778;9.160;2023-05-01T01:59:48;98396.06;;;9.96;100.00
141;BME280;65;48.778;9.160;2023-05-01T02:02:37;98392.66;;;9.94;100.00
141;BME280;65;48.778;9.160;2023-05-01T02:05:24;98396.16;;;9.94;100.00
141;BME280;65;48.778;9.160;2023-05-01T02:08:12;98386.53;;;9.93;100.00
141;BME280;65;48.778;9.160;2023-05-01T02:11:00;98379.44;;;9.94;100.00
141;BME280;65;48.778;9.160;2023-05-01T02:13:48;98372.13;;;9.99;100.00
141;BME280;65;48.778;9.160;2023-05-01T02:16:35;98375.59;;;9.99;100.00
141;BME280;65;48.778;9.160;2023-05-01T02:19:22;98369.28;;;10.02;100.00
141;BME280;65;48.778;9.160;2023-05-01T02:22:09;98376.09;;;10.06;100.00
141;BME280;65;48.778;9.160;2023-05-01T02:24:57;98371.75;;;10.05;100.00
141;BME280;65;48.778;9.160;2023-05-01T02:27:52;98373.47;;;10.06;100.00
141;BME280;65;48.778;9.160;2023-05-01T02:30:40;98365.53;;;10.06;100.00
141;BME280;65;48.778;9.160;2023-05-01T02:33:26;98369.22;;;10.03;100.00
141;BME280;65;48.778;9.160;2023-05-01T02:36:11;98357.72;;;10.04;100.00
141;BME280;65;48.778;9.160;2023-05-01T02:38:58;98359.41;;;10.05;100.00
141;BME280;65;48.778;9.160;2023-05-01T02:41:45;98366.97;;;10.11;100.00
141;BME280;65;48.778;9.160;2023-05-01T02:44:38;98351.88;;;10.13;100.00
141;BME280;65;48.778;9.160;2023-05-01T02:47:27;98348.22;;;10.16;100.00
141;BME280;65;48.778;9.160;2023-05-01T02:50:14;98348.22;;;10.16;100.00
141;BME280;65;48.778;9.160;2023-05-01T02:53:02;98349.91;;;10.17;100.00
141;BME280;65;48.778;9.160;2023-05-01T02:55:48;98347.28;;;10.17;100.00
141;BME280;65;48.778;9.160;2023-05-01T02:58:34;98346.69;;;10.12;100.00
141;BME280;65;48.778;9.160;2023-05-01T03:01:20;98345.19;;;10.08;100.00
141;BME280;65;48.778;9.160;2023-05-01T03:04:06;98345.00;;;10.11;100.00
141;BME280;65;48.778;9.160;2023-05-01T03:06:52;98348.56;;;10.10;100.00
141;BME280;65;48.778;9.160;2023-05-01T03:09:38;98345.19;;;10.08;100.00
141;BME280;65;48.778;9.160;2023-05-01T03:12:24;98349.50;;;10.09;100.00
141;BME280;65;48.778;9.160;2023-05-01T03:15:22;98349.50;;;10.09;100.00
141;BME280;65;48.778;9.160;2023-05-01T03:18:08;98342.16;;;10.14;100.00
141;BME280;65;48.778;9.160;2023-05-01T03:20:54;98339.34;;;10.17;100.00
141;BME280;65;48.778;9.160;2023-05-01T03:23:43;98338.41;;;10.18;100.00
141;BME280;65;48.778;9.160;2023-05-01T03:26:29;98340.72;;;10.24;100.00
141;BME280;65;48.778;9.160;2023-05-01T03:29:15;98339.00;;;10.23;100.00
141;BME280;65;48.778;9.160;2023-05-01T03:32:00;98339.78;;;10.25;100.00
141;BME280;65;48.778;9.160;2023-05-01T03:34:46;98335.25;;;10.27;100.00
141;BME280;65;48.778;9.160;2023-05-01T03:37:32;98333.28;;;10.31;100.00
141;BME280;65;48.778;9.160;2023-05-01T03:40:18;98328.75;;;10.33;100.00
141;BME280;65;48.778;9.160;2023-05-01T03:43:04;98328.94;;;10.30;100.00
141;BME280;65;48.778;9.160;2023-05-01T03:45:50;98322.81;;;10.29;100.00
141;BME280;65;48.778;9.160;2023-05-01T03:48:36;98327.22;;;10.29;100.00
141;BME280;65;48.778;9.160;2023-05-01T03:51:22;98317.50;;;10.29;98.99
141;BME280;65;48.778;9.160;2023-05-01T03:54:08;98317.34;;;10.32;98.79
141;BME280;65;48.778;9.160;2023-05-01T03:56:53;98311.28;;;10.30;98.55
141;BME280;65;48.778;9.160;2023-05-01T03:59:39;98312.91;;;10.33;99.34
141;BME280;65;48.778;9.160;2023-05-01T04:02:28;98314.13;;;10.27;98.82
141;BME280;65;48.778;9.160;2023-05-01T04:05:14;98309.88;;;10.25;99.88
141;BME280;65;48.778;9.160;2023-05-01T04:07:59;98315.34;;;10.22;99.49
141;BME280;65;48.778;9.160;2023-05-01T04:10:45;98314.63;;;10.18;98.44
141;BME280;65;48.778;9.160;2023-05-01T04:13:31;98317.13;;;10.21;98.75
141;BME280;65;48.778;9.160;2023-05-01T04:16:16;98314.31;;;10.24;98.98
141;BME280;65;48.778;9.160;2023-05-01T04:19:02;98314.22;;;10.26;99.58
141;BME280;65;48.778;9.160;2023-05-01T04:21:48;98319.41;;;10.27;98.36
141;BME280;65;48.778;9.160;2023-05-01T04:24:33;98314.88;;;10.29;98.14
141;BME280;65;48.778;9.160;2023-05-01T04:27:20;98314.88;;;10.29;96.65
141;BME280;65;48.778;9.160;2023-05-01T04:30:07;98312.22;;;10.29;94.97
141;BME280;65;48.778;9.160;2023-05-01T04:32:52;98320.91;;;10.31;95.65
141;BME280;65;48.778;9.160;2023-05-01T04:35:39;98315.63;;;10.31;95.31
141;BME280;65;48.778;9.160;2023-05-01T04:38:25;98317.16;;;10.35;95.36
141;BME280;65;48.778;9.160;2023-05-01T04:41:11;98318.84;;;10.36;95.27
141;BME280;65;48.778;9.160;2023-05-01T04:43:57;98320.38;;;10.40;95.06
141;BME280;65;48.778;9.160;2023-05-01T04:46:42;98316.63;;;10.44;95.54
141;BME280;65;48.778;9.160;2023-05-01T04:49:28;98320.13;;;10.45;96.22
141;BME280;65;48.778;9.160;2023-05-01T04:52:14;98317.47;;;10.45;95.32
141;BME280;65;48.778;9.160;2023-05-01T04:55:00;98314.34;;;10.53;96.32
141;BME280;65;48.778;9.160;2023-05-01T04:57:46;98314.06;;;10.57;95.63
141;BME280;65;48.778;9.160;2023-05-01T05:00:31;98316.25;;;10.65;93.28
141;BME280;65;48.778;9.160;2023-05-01T05:03:17;98318.22;;;10.61;92.07
141;BME280;65;48.778;9.160;2023-05-01T05:06:04;98322.47;;;10.64;93.44
141;BME280;65;48.778;9.160;2023-05-01T05:08:49;98325.97;;;10.64;93.57
141;BME280;65;48.778;9.160;2023-05-01T05:11:36;98324.94;;;10.67;93.42
141;BME280;65;48.778;9.160;2023-05-01T05:14:22;98314.94;;;10.72;92.28
141;BME280;65;48.778;9.160;2023-05-01T05:17:08;98317.84;;;10.82;91.48
141;BME280;65;48.778;9.160;2023-05-01T05:19:54;98315.38;;;10.78;89.87
141;BME280;65;48.778;9.160;2023-05-01T05:22:39;98313.03;;;10.74;89.70
141;BME280;65;48.778;9.160;2023-05-01T05:25:25;98304.53;;;10.69;90.93
141;BME280;65;48.778;9.160;2023-05-01T05:28:11;98309.16;;;10.65;90.94
141;BME280;65;48.778;9.160;2023-05-01T05:30:57;98306.06;;;10.59;89.91
141;BME280;65;48.778;9.160;2023-05-01T05:33:42;98316.34;;;10.63;90.56
141;BME280;65;48.778;9.160;2023-05-01T05:36:29;98315.31;;;10.66;92.73
141;BME280;65;48.778;9.160;2023-05-01T05:39:24;98312.94;;;10.61;93.57
141;BME280;65;48.778;9.160;2023-05-01T05:42:10;98314.56;;;10.64;95.18
141;BME280;65;48.778;9.160;2023-05-01T05:44:55;98315.50;;;10.63;95.04
141;BME280;65;48.778;9.160;2023-05-01T05:47:41;98320.97;;;10.60;95.52
141;BME280;65;48.778;9.160;2023-05-01T05:50:27;98319.47;;;10.56;96.65
141;BME280;65;48.778;9.160;2023-05-01T05:53:13;98321.16;;;10.57;98.52
141;BME280;65;48.778;9.160;2023-05-01T05:55:59;98328.41;;;10.53;98.66
141;BME280;65;48.778;9.160;2023-05-01T05:58:45;98321.53;;;10.51;98.44
141;BME280;65;48.778;9.160;2023-05-01T06:01:30;98325.13;;;10.50;98.54
141;BME280;65;48.778;9.160;2023-05-01T06:04:17;98325.03;;;10.51;97.05
141;BME280;65;48.778;9.160;2023-05-01T06:07:02;98319.84;;;10.50;94.74
141;BME280;65;48.778;9.160;2023-05-01T06:09:48;98314.34;;;10.53;93.37
141;BME280;65;48.778;9.160;2023-05-01T06:12:34;98320.88;;;10.61;95.85
141;BME280;65;48.778;9.160;2023-05-01T06:15:20;98321.16;;;10.71;95.16
141;BME280;65;48.778;9.160;2023-05-01T06:18:06;98320.41;;;10.83;99.24
141;BME280;65;48.778;9.160;2023-05-01T06:20:52;98316.22;;;10.93;97.41
141;BME280;65;48.778;9.160;2023-05-01T06:23:38;98319.28;;;11.01;95.89
141;BME280;65;48.778;9.160;2023-05-01T06:26:24;98320.00;;;11.18;94.67
141;BME280;65;48.778;9.160;2023-05-01T06:29:10;98321.09;;;11.28;94.13
141;BME280;65;48.778;9.160;2023-05-01T06:31:56;98324.75;;;11.39;92.55
141;BME280;65;48.778;9.160;2023-05-01T06:34:42;98330.84;;;11.54;90.21
141;BME280;65;48.778;9.160;2023-05-01T06:37:27;98333.47;;;11.68;88.99
141;BME280;65;48.778;9.160;2023-05-01T06:40:14;98331.69;;;11.69;92.08
141;BME280;65;48.778;9.160;2023-05-01T06:43:01;98336.69;;;11.73;92.42
141;BME280;65;48.778;9.160;2023-05-01T06:45:47;98330.25;;;11.78;89.30
141;BME280;65;48.778;9.160;2023-05-01T06:48:32;98334.41;;;11.82;89.18
141;BME280;65;48.778;9.160;2023-05-01T06:51:18;98338.94;;;11.80;87.46
141;BME280;65;48.778;9.160;2023-05-01T06:54:04;98346.69;;;11.83;87.78
141;BME280;65;48.778;9.160;2023-05-01T06:56:49;98343.75;;;11.87;90.52
141;BME280;65;48.778;9.160;2023-05-01T06:59:35;98351.72;;;12.00;87.84
141;BME280;65;48.778;9.160;2023-05-01T07:02:21;98338.88;;;12.21;87.31
141;BME280;65;48.778;9.160;2023-05-01T07:05:07;98348.75;;;12.44;86.63
141;BME280;65;48.778;9.160;2023-05-01T07:07:52;98343.44;;;12.31;86.70
141;BME280;65;48.778;9.160;2023-05-01T07:10:38;98348.66;;;12.58;86.97
141;BME280;65;48.778;9.160;2023-05-01T07:13:24;98345.81;;;12.74;88.76
141;BME280;65;48.778;9.160;2023-05-01T07:16:10;98342.50;;;12.45;83.71
141;BME280;65;48.778;9.160;2023-05-01T07:18:56;98347.91;;;12.69;87.83
141;BME280;65;48.778;9.160;2023-05-01T07:21:42;98345.34;;;12.67;81.51
141;BME280;65;48.778;9.160;2023-05-01T07:24:27;98344.75;;;12.77;82.58
141;BME280;65;48.778;9.160;2023-05-01T07:27:13;98346.41;;;13.03;85.52
141;BME280;65;48.778;9.160;2023-05-01T07:29:59;98345.66;;;13.14;81.65
141;BME280;65;48.778;9.160;2023-05-01T07:32:46;98338.53;;;13.40;82.50
141;BME280;65;48.778;9.160;2023-05-01T07:35:32;98343.06;;;13.50;79.66
141;BME280;65;48.778;9.160;2023-05-01T07:38:17;98341.22;;;13.64;78.90
141;BME280;65;48.778;9.160;2023-05-01T07:41:03;98342.50;;;13.82;79.03
141;BME280;65;48.778;9.160;2023-05-01T07:43:49;98336.19;;;13.72;76.75
141;BME280;65;48.778;9.160;2023-05-01T07:46:35;98328.22;;;14.31;75.59
141;BME280;65;48.778;9.160;2023-05-01T07:49:21;98335.94;;;14.58;73.17
141;BME280;65;48.778;9.160;2023-05-01T07:52:07;98332.31;;;14.59;73.67
141;BME280;65;48.778;9.160;2023-05-01T07:54:52;98333.66;;;14.40;73.71
141;BME280;65;48.778;9.160;2023-05-01T07:57:38;98324.28;;;14.12;74.93
141;BME280;65;48.778;9.160;2023-05-01T08:00:24;98328.41;;;14.16;75.42
141;BME280;65;48.778;9.160;2023-05-01T08:03:10;98323.22;;;14.15;75.72
141;BME280;65;48.778;9.160;2023-05-01T08:05:57;98324.25;;;13.53;76.13
141;BME280;65;48.778;9.160;2023-05-01T08:08:43;98328.25;;;13.10;82.06
141;BME280;65;48.778;9.160;2023-05-01T08:11:30;98321.31;;;13.45;79.02
141;BME280;65;48.778;9.160;2023-05-01T08:14:17;98329.44;;;13.79;79.05
141;BME280;65;48.778;9.160;2023-05-01T08:17:03;98322.44;;;13.78;81.82
141;BME280;65;48.778;9.160;2023-05-01T08:19:49;98327.06;;;13.14;80.88
141;BME280;65;48.778;9.160;2023-05-01T08:22:35;98321.88;;;13.38;81.83
141;BME280;65;48.778;9.160;2023-05-01T08:25:21;98321.03;;;14.09;73.77
141;BME280;65;48.778;9.160;2023-05-01T08:28:07;98322.50;;;14.48;77.93
141;BME280;65;48.778;9.160;2023-05-01T08:30:52;98309.13;;;14.37;73.54
141;BME280;65;48.778;9.160;2023-05-01T08:33:38;98312.97;;;14.90;72.72
141;BME280;65;48.778;9.160;2023-05-01T08:36:26;98317.72;;;15.86;67.25
141;BME280;65;48.778;9.160;2023-05-01T08:39:12;98315.09;;;15.74;70.64
141;BME280;65;48.778;9.160;2023-05-01T08:42:00;98307.00;;;16.50;66.39
141;BME280;65;48.778;9.160;2023-05-01T08:44:46;98304.50;;;16.99;62.12
141;BME280;65;48.778;9.160;2023-05-01T08:47:36;98307.25;;;17.28;60.46
141;BME280;65;48.778;9.160;2023-05-01T08:50:24;98302.94;;;17.37;61.50
141;BME280;65;48.778;9.160;2023-05-01T08:53:10;98298.59;;;16.33;67.63
141;BME280;65;48.778;9.160;2023-05-01T08:55:57;98299.97;;;16.49;68.80
141;BME280;65;48.778;9.160;2023-05-01T08:58:47;98303.25;;;17.03;65.82
141;BME280;65;48.778;9.160;2023-05-01T09:01:34;98302.34;;;16.93;68.86
141;BME280;65;48.778;9.160;2023-05-01T09:04:20;98306.97;;;17.72;61.71
141;BME280;65;48.778;9.160;2023-05-01T09:07:07;98304.47;;;18.09;59.64
141;BME280;65;48.778;9.160;2023-05-01T09:10:19;98307.59;;;17.94;59.68
141;BME280;65;48.778;9.160;2023-05-01T09:13:05;98309.66;;;17.81;58.48
141;BME280;65;48.778;9.160;2023-05-01T09:15:52;98306.72;;;17.84;58.72
141;BME280;65;48.778;9.160;2023-05-01T09:18:38;98304.72;;;18.44;56.71
141;BME280;65;48.778;9.160;2023-05-01T09:21:50;98302.47;;;18.40;59.26
141;BME280;65;48.778;9.160;2023-05-01T09:24:37;98299.38;;;18.44;55.26
141;BME280;65;48.778;9.160;2023-05-01T09:27:38;98297.13;;;18.40;56.43
141;BME280;65;48.778;9.160;2023-05-01T09:33:16;98302.50;;;18.11;59.73
141;BME280;65;48.778;9.160;2023-05-01T09:36:02;98301.34;;;18.42;60.41
141;BME280;65;48.778;9.160;2023-05-01T09:38:48;98308.22;;;19.20;56.45
141;BME280;65;48.778;9.160;2023-05-01T09:41:51;98304.84;;;20.09;53.35
141;BME280;65;48.778;9.160;2023-05-01T09:44:40;98302.50;;;21.53;48.40
141;BME280;65;48.778;9.160;2023-05-01T09:47:28;98297.03;;;23.09;44.64
141;BME280;65;48.778;9.160;2023-05-01T09:50:33;98288.19;;;22.52;44.25
141;BME280;65;48.778;9.160;2023-05-01T09:53:32;98288.53;;;22.81;47.33
141;BME280;65;48.778;9.160;2023-05-01T09:56:21;98292.91;;;22.58;44.31
141;BME280;65;48.778;9.160;2023-05-01T10:02:01;98297.81;;;20.08;52.05
141;BME280;65;48.778;9.160;2023-05-01T10:04:47;98297.91;;;18.88;54.22
141;BME280;65;48.778;9.160;2023-05-01T10:07:33;98300.06;;;18.46;56.72
141;BME280;65;48.778;9.160;2023-05-01T10:10:20;98301.94;;;18.17;57.19
141;BME280;65;48.778;9.160;2023-05-01T10:13:16;98301.28;;;17.55;58.23
141;BME280;65;48.778;9.160;2023-05-01T10:16:02;98301.00;;;17.49;60.72
141;BME280;65;48.778;9.160;2023-05-01T10:18:55;98302.09;;;17.36;61.30
141;BME280;65;48.778;9.160;2023-05-01T10:21:44;98300.75;;;17.61;62.31
141;BME280;65;48.778;9.160;2023-05-01T10:24:30;98299.41;;;17.96;61.70
141;BME280;65;48.778;9.160;2023-05-01T10:27:17;98298.69;;;18.32;57.04
141;BME280;65;48.778;9.160;2023-05-01T10:30:04;98297.81;;;18.42;56.33
141;BME280;65;48.778;9.160;2023-05-01T10:32:51;98293.03;;;18.64;61.47
141;BME280;65;48.778;9.160;2023-05-01T10:35:39;98300.25;;;19.01;57.99
141;BME280;65;48.778;9.160;2023-05-01T10:38:32;98303.91;;;18.63;56.60
141;BME280;65;48.778;9.160;2023-05-01T10:41:59;98298.59;;;18.90;56.76
141;BME280;65;48.778;9.160;2023-05-01T10:44:46;98296.44;;;19.86;53.05
141;BME280;65;48.778;9.160;2023-05-01T10:50:19;98302.50;;;19.88;52.29
141;BME280;65;48.778;9.160;2023-05-01T10:55:57;98286.81;;;20.55;50.18
141;BME280;65;48.778;9.160;2023-05-01T11:21:08;98278.16;;;17.94;61.32
141;BME280;65;48.778;9.160;2023-05-01T11:23:54;98274.63;;;18.23;57.54
141;BME280;65;48.778;9.160;2023-05-01T11:26:43;98277.00;;;18.26;55.71
141;BME280;65;48.778;9.160;2023-05-01T11:29:31;98272.34;;;18.28;56.77
141;BME280;65;48.778;9.160;2023-05-01T11:32:21;98275.75;;;18.30;57.90
141;BME280;65;48.778;9.160;2023-05-01T11:35:16;98278.41;;;18.40;58.52
141;BME280;65;48.778;9.160;2023-05-01T11:38:02;98271.78;;;18.63;57.51
141;BME280;65;48.778;9.160;2023-05-01T11:40:52;98278.41;;;18.96;54.86
141;BME280;65;48.778;9.160;2023-05-01T11:46:39;98271.06;;;18.42;58.74
141;BME280;65;48.778;9.160;2023-05-01T11:49:26;98263.88;;;18.42;57.56
141;BME280;65;48.778;9.160;2023-05-01T11:52:15;98280.81;;;18.33;64.27
141;BME280;65;48.778;9.160;2023-05-01T11:55:00;98275.00;;;18.57;58.31
141;BME280;65;48.778;9.160;2023-05-01T11:57:50;98272.31;;;18.67;57.88
141;BME280;65;48.778;9.160;2023-05-01T12:00:40;98275.00;;;18.67;62.74
141;BME280;65;48.778;9.160;2023-05-01T12:03:26;98275.06;;;18.84;59.42
141;BME280;65;48.778;9.160;2023-05-01T12:06:12;98277.34;;;19.16;55.88
141;BME280;65;48.778;9.160;2023-05-01T12:08:58;98274.06;;;19.22;57.45
141;BME280;65;48.778;9.160;2023-05-01T12:11:45;98264.00;;;19.34;57.52
141;BME280;65;48.778;9.160;2023-05-01T12:14:31;98267.91;;;19.40;55.47
141;BME280;65;48.778;9.160;2023-05-01T12:17:17;98269.84;;;19.47;55.05
141;BME280;65;48.778;9.160;2023-05-01T12:20:04;98265.13;;;19.32;55.70
141;BME280;65;48.778;9.160;2023-05-01T12:22:50;98266.50;;;19.63;56.77
141;BME280;65;48.778;9.160;2023-05-01T12:25:37;98265.31;;;19.48;57.31
141;BME280;65;48.778;9.160;2023-05-01T12:28:24;98264.59;;;19.28;55.47
141;BME280;65;48.778;9.160;2023-05-01T12:31:11;98257.16;;;19.22;54.68
141;BME280;65;48.778;9.160;2023-05-01T12:33:59;98266.59;;;19.26;57.39
141;BME280;65;48.778;9.160;2023-05-01T12:36:52;98266.81;;;19.60;54.60
141;BME280;65;48.778;9.160;2023-05-01T12:39:39;98263.09;;;19.71;53.41
141;BME280;65;48.778;9.160;2023-05-01T12:42:26;98267.84;;;19.77;52.81
141;BME280;65;48.778;9.160;2023-05-01T12:45:12;98262.56;;;19.67;53.16
141;BME280;65;48.778;9.160;2023-05-01T12:48:00;98270.31;;;19.06;57.78
141;BME280;65;48.778;9.160;2023-05-01T12:50:46;98262.34;;;18.96;58.29
141;BME280;65;48.778;9.160;2023-05-01T12:53:42;98259.56;;;18.88;56.50
141;BME280;65;48.778;9.160;2023-05-01T12:56:28;98255.56;;;18.64;60.44
141;BME280;65;48.778;9.160;2023-05-01T12:59:25;98256.56;;;18.44;58.94
141;BME280;65;48.778;9.160;2023-05-01T13:02:13;98245.84;;;18.44;61.23
141;BME280;65;48.778;9.160;2023-05-01T13:05:10;98258.03;;;18.00;65.29
141;BME280;65;48.778;9.160;2023-05-01T13:07:56;98252.09;;;17.87;65.03
141;BME280;65;48.778;9.160;2023-05-01T13:10:43;98251.69;;;17.91;59.54
141;BME280;65;48.778;9.160;2023-05-01T13:13:32;98252.13;;;17.18;64.78
141;BME280;65;48.778;9.160;2023-05-01T13:16:18;98247.03;;;17.05;68.85
141;BME280;65;48.778;9.160;2023-05-01T13:19:04;98242.25;;;17.08;64.04
141;BME280;65;48.778;9.160;2023-05-01T13:21:51;98248.00;;;17.04;66.39
141;BME280;65;48.778;9.160;2023-05-01T13:24:40;98252.63;;;16.71;67.25
141;BME280;65;48.778;9.160;2023-05-01T13:27:27;98260.13;;;16.57;67.08
141;BME280;65;48.778;9.160;2023-05-01T13:30:13;98259.97;;;16.28;73.22
141;BME280;65;48.778;9.160;2023-05-01T13:32:59;98261.25;;;16.12;73.99
141;BME280;65;48.778;9.160;2023-05-01T13:35:46;98259.56;;;16.11;72.59
141;BME280;65;48.778;9.160;2023-05-01T13:38:33;98263.25;;;15.99;75.60
141;BME280;65;48.778;9.160;2023-05-01T13:41:26;98264.28;;;15.87;72.93
141;BME280;65;48.778;9.160;2023-05-01T13:44:13;98270.22;;;15.91;73.26
141;BME280;65;48.778;9.160;2023-05-01T13:47:01;98270.78;;;15.94;75.18
141;BME280;65;48.778;9.160;2023-05-01T13:49:47;98265.47;;;16.15;77.37
141;BME280;65;48.778;9.160;2023-05-01T13:52:40;98270.38;;;16.31;77.38
141;BME280;65;48.778;9.160;2023-05-01T13:55:27;98265.72;;;16.54;71.92
141;BME280;65;48.778;9.160;2023-05-01T13:58:13;98266.88;;;16.61;72.86
141;BME280;65;48.778;9.160;2023-05-01T14:00:59;98270.34;;;16.72;67.72
141;BME280;65;48.778;9.160;2023-05-01T14:03:46;98271.66;;;16.57;67.51
141;BME280;65;48.778;9.160;2023-05-01T14:06:33;98272.66;;;16.35;68.63
141;BME280;65;48.778;9.160;2023-05-01T14:09:21;98261.78;;;16.48;67.95
141;BME280;65;48.778;9.160;2023-05-01T14:12:06;98256.63;;;16.77;70.13
141;BME280;65;48.778;9.160;2023-05-01T14:14:52;98253.59;;;17.41;63.73
141;BME280;65;48.778;9.160;2023-05-01T14:17:38;98248.16;;;17.91;66.91
141;BME280;65;48.778;9.160;2023-05-01T14:20:24;98245.91;;;18.15;58.22
141;BME280;65;48.778;9.160;2023-05-01T14:23:10;98250.06;;;18.56;59.58
141;BME280;65;48.778;9.160;2023-05-01T14:25:56;98248.94;;;19.51;60.78
141;BME280;65;48.778;9.160;2023-05-01T14:28:42;98249.50;;;20.26;56.00
141;BME280;65;48.778;9.160;2023-05-01T14:31:29;98246.97;;;20.68;50.59
141;BME280;65;48.778;9.160;2023-05-01T14:34:17;98248.47;;;20.96;52.45
141;BME280;65;48.778;9.160;2023-05-01T14:37:03;98250.91;;;21.50;48.12
141;BME280;65;48.778;9.160;2023-05-01T14:39:49;98252.41;;;21.52;46.54
141;BME280;65;48.778;9.160;2023-05-01T14:42:35;98250.44;;;20.86;49.24
141;BME280;65;48.778;9.160;2023-05-01T14:45:20;98247.44;;;20.02;54.29
141;BME280;65;48.778;9.160;2023-05-01T14:48:06;98257.56;;;19.45;55.95
141;BME280;65;48.778;9.160;2023-05-01T14:50:52;98258.78;;;18.49;57.03
141;BME280;65;48.778;9.160;2023-05-01T14:53:39;98264.63;;;18.15;57.26
141;BME280;65;48.778;9.160;2023-05-01T14:56:28;98267.03;;;17.70;61.22
141;BME280;65;48.778;9.160;2023-05-01T14:59:14;98265.13;;;17.42;64.48
141;BME280;65;48.778;9.160;2023-05-01T15:02:00;98268.56;;;17.23;61.86
141;BME280;65;48.778;9.160;2023-05-01T15:04:46;98277.22;;;16.96;63.83
141;BME280;65;48.778;9.160;2023-05-01T15:07:32;98281.50;;;16.78;65.92
141;BME280;65;48.778;9.160;2023-05-01T15:10:18;98285.97;;;16.56;65.94
141;BME280;65;48.778;9.160;2023-05-01T15:13:05;98295.88;;;16.44;69.87
141;BME280;65;48.778;9.160;2023-05-01T15:15:51;98294.16;;;16.02;79.42
141;BME280;65;48.778;9.160;2023-05-01T15:18:37;98295.84;;;15.71;87.37
141;BME280;65;48.778;9.160;2023-05-01T15:21:23;98296.16;;;15.34;90.16
141;BME280;65;48.778;9.160;2023-05-01T15:24:09;98289.88;;;15.02;90.63
141;BME280;65;48.778;9.160;2023-05-01T15:26:54;98293.88;;;14.85;93.28
141;BME280;65;48.778;9.160;2023-05-01T15:29:40;98303.78;;;14.83;100.00
141;BME280;65;48.778;9.160;2023-05-01T15:32:26;98298.34;;;14.51;100.00
141;BME280;65;48.778;9.160;2023-05-01T15:35:12;98295.38;;;14.43;100.00
141;BME280;65;48.778;9.160;2023-05-01T15:37:57;98288.91;;;14.47;100.00
141;BME280;65;48.778;9.160;2023-05-01T15:40:44;98284.06;;;14.52;100.00
141;BME280;65;48.778;9.160;2023-05-01T15:43:30;98290.47;;;14.61;100.00
141;BME280;65;48.778;9.160;2023-05-01T15:46:15;98283.47;;;14.71;100.00
141;BME280;65;48.778;9.160;2023-05-01T15:49:06;98283.22;;;14.96;100.00
141;BME280;65;48.778;9.160;2023-05-01T15:51:52;98284.53;;;15.02;100.00
141;BME280;65;48.778;9.160;2023-05-01T15:54:38;98283.22;;;14.74;100.00
141;BME280;65;48.778;9.160;2023-05-01T15:57:24;98290.81;;;14.45;100.00
141;BME280;65;48.778;9.160;2023-05-01T16:00:10;98287.56;;;14.97;98.96
141;BME280;65;48.778;9.160;2023-05-01T16:03:00;98291.19;;;15.30;92.38
141;BME280;65;48.778;9.160;2023-05-01T16:05:45;98287.34;;;15.23;95.00
141;BME280;65;48.778;9.160;2023-05-01T16:08:31;98298.22;;;15.31;94.59
141;BME280;65;48.778;9.160;2023-05-01T16:11:17;98304.84;;;15.36;94.40
141;BME280;65;48.778;9.160;2023-05-01T16:14:06;98305.94;;;15.34;94.37
141;BME280;65;48.778;9.160;2023-05-01T16:16:53;98304.03;;;15.25;93.77
141;BME280;65;48.778;9.160;2023-05-01T16:19:39;98315.78;;;15.11;98.34
141;BME280;65;48.778;9.160;2023-05-01T16:22:25;98316.50;;;15.02;99.12
141;BME280;65;48.778;9.160;2023-05-01T16:25:11;98310.31;;;14.79;100.00
141;BME280;65;48.778;9.160;2023-05-01T16:27:57;98314.19;;;14.52;100.00
141;BME280;65;48.778;9.160;2023-05-01T16:30:43;98324.84;;;14.40;100.00
141;BME280;65;48.778;9.160;2023-05-01T16:33:30;98336.16;;;14.19;100.00
141;BME280;65;48.778;9.160;2023-05-01T16:36:18;98348.06;;;14.03;100.00